Time;durP1;ratioP1;P1;durP2;ratioP2;P2;SDS_P1;SDS_P2;PMS_P1;PMS_P2;Temp;Humidity;BMP_temperature;BMP_pressure;BME280_temperature;BME280_humidity;BME280_pressure;Samples;Min_cycle;Max_cycle;Signal;HPM_P1;HPM_P2
2023/01/15 00:01:03;;;;;;;0.10;0.10;;;8.60;99.90;12.80;163505.00;;;;4972982;28;20209;-76
2023/01/15 00:03:32;;;;;;;0.10;0.10;;;8.60;99.90;12.80;163505.00;;;;4974325;28;20310;-76
2023/01/15 00:06:02;;;;;;;0.10;0.10;;;8.70;99.90;12.80;163505.00;;;;4974472;28;20685;-77
2023/01/15 00:08:31;;;;;;;0.10;0.10;;;8.70;99.90;12.80;163505.00;;;;4974749;28;20219;-77
2023/01/15 00:11:03;;;;;;;0.10;0.10;;;8.70;99.90;12.80;163505.00;;;;4974457;28;20478;-77
2023/01/15 00:13:31;;;;;;;0.10;0.10;;;8.80;99.90;12.80;163505.00;;;;4972421;28;20201;-77
2023/01/15 00:16:04;;;;;;;0.10;0.10;;;8.80;99.90;12.80;163505.00;;;;4974672;28;20204;-77
2023/01/15 00:18:32;;;;;;;0.10;0.10;;;8.80;99.90;12.80;163505.00;;;;4971948;28;20591;-76
2023/01/15 00:21:01;;;;;;;0.10;0.10;;;8.80;99.90;12.80;163505.00;;;;4973805;28;20216;-77
2023/01/15 00:29:03;;;;;;;0.10;0.10;;;8.80;99.90;12.80;163505.00;;;;4966797;28;20204;-77
2023/01/15 00:31:34;;;;;;;0.10;0.10;;;8.80;99.90;12.80;163505.00;;;;4981377;28;20262;-77
2023/01/15 00:34:02;;;;;;;0.08;0.08;;;8.80;99.90;12.80;163505.00;;;;4983559;28;20263;-76
2023/01/15 00:36:31;;;;;;;0.10;0.10;;;8.80;99.90;12.80;163505.00;;;;4984994;28;20201;-76
2023/01/15 00:38:59;;;;;;;0.10;0.10;;;8.80;99.90;12.80;163505.00;;;;4973684;28;20547;-76
2023/01/15 00:41:28;;;;;;;0.10;0.10;;;8.80;99.90;12.80;163505.00;;;;4973446;28;20217;-76
2023/01/15 00:43:56;;;;;;;0.10;0.10;;;8.80;99.90;12.80;163505.00;;;;4973601;28;20220;-76
2023/01/15 00:46:24;;;;;;;0.10;0.10;;;8.80;99.90;12.80;163505.00;;;;4973955;28;20256;-76
2023/01/15 00:48:53;;;;;;;0.00;0.00;;;8.80;99.90;12.80;163505.00;;;;4958320;28;20201;-77
2023/01/15 00:51:22;;;;;;;0.10;0.10;;;8.90;99.90;12.80;163505.00;;;;4961205;28;20233;-77
2023/01/15 00:53:50;;;;;;;0.10;0.10;;;8.90;99.90;12.80;163505.00;;;;4964538;28;20204;-77
2023/01/15 00:56:18;;;;;;;0.10;0.10;;;8.90;99.90;12.80;163505.00;;;;4972983;28;20197;-76
2023/01/15 00:58:47;;;;;;;0.10;0.10;;;8.90;99.90;12.80;163505.00;;;;4973693;28;20207;-76
2023/01/15 01:01:16;;;;;;;0.10;0.10;;;9.00;99.90;12.80;163505.00;;;;4973751;28;20193;-76
2023/01/15 01:03:47;;;;;;;0.10;0.10;;;9.00;99.90;12.80;163505.00;;;;4971116;28;20698;-76
2023/01/15 01:06:17;;;;;;;0.10;0.10;;;9.00;99.90;12.80;163505.00;;;;4967781;28;20197;-76
2023/01/15 01:08:45;;;;;;;0.10;0.10;;;8.90;99.90;12.80;163505.00;;;;4956010;28;20271;-77
2023/01/15 01:11:16;;;;;;;0.10;0.10;;;9.00;99.90;12.80;163505.00;;;;4972244;28;20248;-77
2023/01/15 01:13:47;;;;;;;0.10;0.10;;;8.90;99.90;12.80;163505.00;;;;4969902;28;20205;-77
2023/01/15 01:16:32;;;;;;;0.00;0.00;;;8.90;99.90;12.80;163505.00;;;;4972805;28;20213;-77
2023/01/15 01:19:03;;;;;;;0.10;0.10;;;8.90;99.90;12.80;163505.00;;;;4959904;28;20201;-77
2023/01/15 01:21:31;;;;;;;0.10;0.10;;;8.90;99.90;12.80;163505.00;;;;4973469;28;20209;-77
2023/01/15 01:24:00;;;;;;;0.10;0.10;;;8.90;99.90;12.80;163505.00;;;;4963286;28;20235;-77
2023/01/15 01:26:29;;;;;;;0.10;0.10;;;8.80;99.90;12.80;163505.00;;;;4973441;28;20193;-77
2023/01/15 01:28:59;;;;;;;0.10;0.10;;;8.90;99.90;12.80;163505.00;;;;4972632;28;20655;-77
2023/01/15 01:31:27;;;;;;;0.10;0.10;;;8.90;99.90;12.80;163505.00;;;;4955280;28;20229;-77
2023/01/15 01:33:58;;;;;;;0.10;0.10;;;8.90;99.90;12.80;163505.00;;;;4973675;28;20212;-77
2023/01/15 01:36:31;;;;;;;0.10;0.10;;;8.90;99.90;12.80;163505.00;;;;4975495;28;20207;-77
2023/01/15 01:39:01;;;;;;;0.10;0.10;;;8.90;99.90;12.80;163505.00;;;;4975552;28;20197;-77
2023/01/15 01:41:29;;;;;;;0.10;0.10;;;8.90;99.90;12.80;163505.00;;;;4974356;28;20649;-77
2023/01/15 01:44:02;;;;;;;0.10;0.10;;;8.90;99.90;12.80;163505.00;;;;4974522;28;20216;-77
2023/01/15 01:46:33;;;;;;;0.10;0.10;;;8.90;99.90;12.80;163505.00;;;;4956599;28;20205;-76
2023/01/15 01:49:07;;;;;;;0.10;0.10;;;8.90;99.90;12.80;163505.00;;;;4972928;28;20197;-76
2023/01/15 01:51:40;;;;;;;0.10;0.10;;;8.90;99.90;12.80;163505.00;;;;4971528;28;20287;-77
2023/01/15 01:54:12;;;;;;;0.03;0.03;;;9.00;99.90;12.80;163505.00;;;;4968749;28;20205;-77
2023/01/15 01:56:41;;;;;;;0.10;0.10;;;8.90;99.90;12.80;163505.00;;;;4974175;28;20256;-77
2023/01/15 01:59:12;;;;;;;0.08;0.08;;;9.00;99.90;12.80;163505.00;;;;4971870;28;20255;-74
2023/01/15 02:01:40;;;;;;;0.10;0.10;;;9.00;99.90;12.80;163505.00;;;;4971522;28;20217;-76
2023/01/15 02:04:10;;;;;;;0.10;0.10;;;8.90;99.90;12.80;163505.00;;;;4971331;28;20213;-77
2023/01/15 02:06:42;;;;;;;0.05;0.05;;;9.00;99.90;12.80;163505.00;;;;4955343;28;20203;-77
2023/01/15 02:09:10;;;;;;;0.03;0.03;;;9.00;99.90;12.80;163505.00;;;;4972447;28;20322;-78
2023/01/15 02:11:38;;;;;;;0.03;0.03;;;9.00;99.90;12.80;163505.00;;;;4955210;28;20320;-77
2023/01/15 02:14:15;;;;;;;0.10;0.10;;;9.00;99.90;12.80;163505.00;;;;4950481;28;20209;-78
2023/01/15 02:16:52;;;;;;;0.10;0.10;;;9.00;99.90;12.80;163505.00;;;;4955116;28;20205;-77
2023/01/15 02:19:40;;;;;;;0.10;0.10;;;9.00;99.90;12.80;163505.00;;;;4968605;28;20192;-77
2023/01/15 02:22:24;;;;;;;0.10;0.10;;;9.00;99.90;12.80;163505.00;;;;4971693;28;20220;-77
2023/01/15 02:25:08;;;;;;;0.10;0.10;;;9.10;99.90;12.80;163505.00;;;;4954511;28;20244;-77
2023/01/15 02:27:43;;;;;;;0.10;0.10;;;9.10;99.90;12.80;163505.00;;;;4959286;28;20205;-77
2023/01/15 02:30:21;;;;;;;0.10;0.10;;;9.10;99.90;12.80;163505.00;;;;4972039;28;20192;-77
2023/01/15 02:32:59;;;;;;;0.10;0.10;;;9.10;99.90;12.80;163505.00;;;;4970570;28;20307;-77
2023/01/15 02:35:34;;;;;;;0.10;0.10;;;9.20;99.90;12.80;163505.00;;;;4955292;28;20275;-77
2023/01/15 02:38:10;;;;;;;0.10;0.10;;;9.20;99.90;12.80;163505.00;;;;4954749;28;20283;-77
2023/01/15 02:40:42;;;;;;;0.08;0.08;;;9.20;99.90;12.80;163505.00;;;;4979741;28;20204;-77
2023/01/15 02:43:15;;;;;;;0.10;0.10;;;9.20;99.90;12.80;163505.00;;;;4948947;28;20225;-77
2023/01/15 02:45:49;;;;;;;0.10;0.10;;;9.20;99.90;12.80;163505.00;;;;4979552;28;20247;-77
2023/01/15 02:48:23;;;;;;;0.10;0.10;;;9.30;99.90;12.80;163505.00;;;;4979279;28;20236;-76
2023/01/15 02:50:58;;;;;;;0.10;0.10;;;9.30;99.90;12.80;163505.00;;;;4982204;28;20203;-76
2023/01/15 02:53:31;;;;;;;0.10;0.10;;;9.30;99.90;12.80;163505.00;;;;4960716;28;20196;-76
2023/01/15 02:56:09;;;;;;;0.10;0.10;;;9.30;99.90;12.80;163505.00;;;;4961631;28;20220;-76
2023/01/15 02:58:52;;;;;;;0.10;0.10;;;9.40;99.90;12.80;163505.00;;;;4960958;28;20327;-76
2023/01/15 03:01:30;;;;;;;0.10;0.10;;;9.30;99.90;12.80;163505.00;;;;4977140;28;20228;-75
2023/01/15 03:04:08;;;;;;;0.10;0.10;;;9.40;99.90;12.80;163505.00;;;;4960647;28;20204;-75
2023/01/15 03:06:42;;;;;;;0.10;0.10;;;9.40;99.90;12.80;163505.00;;;;4974335;28;20220;-74
2023/01/15 03:09:14;;;;;;;0.10;0.10;;;9.40;99.90;12.80;163505.00;;;;4959118;28;20214;-75
2023/01/15 03:11:51;;;;;;;0.10;0.10;;;9.40;99.90;12.80;163505.00;;;;4977917;28;20216;-75
2023/01/15 03:14:28;;;;;;;0.10;0.10;;;9.40;99.90;12.80;163505.00;;;;4969245;28;20192;-76
2023/01/15 03:17:01;;;;;;;0.10;0.10;;;9.40;99.90;12.80;163505.00;;;;4977385;28;20201;-76
2023/01/15 03:19:41;;;;;;;0.10;0.10;;;9.40;99.90;12.80;163505.00;;;;4960414;28;20193;-77
2023/01/15 03:22:23;;;;;;;0.10;0.10;;;9.40;99.90;12.80;163505.00;;;;4973382;28;20244;-77
2023/01/15 03:24:55;;;;;;;0.10;0.10;;;9.40;99.90;12.80;163505.00;;;;4977913;28;21120;-77
2023/01/15 03:27:24;;;;;;;0.10;0.10;;;9.50;99.90;12.80;163505.00;;;;4960871;28;20228;-77
2023/01/15 03:30:04;;;;;;;0.10;0.10;;;9.50;99.90;12.80;163505.00;;;;4960620;28;20193;-76
2023/01/15 03:32:32;;;;;;;0.00;0.00;;;9.50;99.90;12.80;163505.00;;;;4975426;28;20591;-76
2023/01/15 03:35:02;;;;;;;0.10;0.10;;;9.50;99.90;12.80;163505.00;;;;4961319;28;20200;-77
2023/01/15 03:37:32;;;;;;;0.10;0.10;;;9.60;99.90;12.80;163505.00;;;;4972924;28;20216;-76
2023/01/15 03:40:03;;;;;;;0.10;0.10;;;9.50;99.90;12.80;163505.00;;;;4977944;28;20189;-76
2023/01/15 03:43:39;;;;;;;0.10;0.10;;;9.60;99.90;12.80;163505.00;;;;4968279;28;20212;-76
2023/01/15 03:45:48;;;;;;;0.10;0.10;;;9.50;99.90;12.80;163505.00;;;;4954453;28;20311;-76
2023/01/15 03:48:24;;;;;;;0.00;0.00;;;9.50;99.90;12.80;163505.00;;;;4976773;28;20674;-74
2023/01/15 03:51:05;;;;;;;0.00;0.00;;;9.50;99.90;12.80;163505.00;;;;4976466;28;20605;-75
2023/01/15 03:53:41;;;;;;;0.10;0.10;;;9.60;99.90;12.80;163505.00;;;;4953801;28;20209;-76
2023/01/15 03:56:21;;;;;;;0.10;0.10;;;9.60;99.90;12.80;163505.00;;;;4971102;28;20219;-77
2023/01/15 03:58:58;;;;;;;0.10;0.10;;;9.60;99.90;12.80;163505.00;;;;4956933;28;20204;-77
2023/01/15 04:01:44;;;;;;;0.10;0.10;;;9.60;99.90;12.80;163505.00;;;;4966170;28;20233;-77
2023/01/15 04:04:14;;;;;;;0.05;0.05;;;9.60;99.90;12.80;163505.00;;;;4959237;28;20205;-76
2023/01/15 04:06:45;;;;;;;0.10;0.10;;;9.60;99.90;12.80;163505.00;;;;4957447;28;20240;-77
2023/01/15 04:09:15;;;;;;;0.10;0.10;;;9.60;99.90;12.80;163505.00;;;;4971224;28;20198;-77
2023/01/15 04:11:45;;;;;;;0.10;0.10;;;9.60;99.90;12.80;163505.00;;;;4950491;28;20220;-76
2023/01/15 04:14:14;;;;;;;0.10;0.10;;;9.60;99.90;12.80;163505.00;;;;4955435;28;20288;-76
2023/01/15 04:16:53;;;;;;;0.10;0.10;;;9.60;99.90;12.80;163505.00;;;;4949067;28;20205;-77
2023/01/15 04:19:24;;;;;;;0.10;0.10;;;9.60;99.90;12.80;163505.00;;;;4974294;28;20240;-77
2023/01/15 04:22:02;;;;;;;0.08;0.08;;;9.60;99.90;12.80;163505.00;;;;4974685;28;20626;-77
2023/01/15 04:24:30;;;;;;;0.10;0.10;;;9.60;99.90;12.80;163505.00;;;;4974544;28;20248;-77
2023/01/15 04:26:58;;;;;;;0.10;0.10;;;9.60;99.90;12.80;163505.00;;;;4975397;28;20221;-77
2023/01/15 04:29:26;;;;;;;0.10;0.10;;;9.70;99.90;12.80;163505.00;;;;4975276;28;20189;-77
2023/01/15 04:31:56;;;;;;;0.10;0.10;;;9.70;99.90;12.80;163505.00;;;;4972993;28;20710;-76
2023/01/15 04:34:26;;;;;;;0.10;0.10;;;9.70;99.90;12.80;163505.00;;;;4955419;29;20196;-76
2023/01/15 04:36:54;;;;;;;0.10;0.10;;;9.70;99.90;12.80;163505.00;;;;4975313;28;20217;-75
2023/01/15 04:39:22;;;;;;;0.10;0.10;;;9.70;99.90;12.80;163505.00;;;;4980401;28;20197;-76
2023/01/15 04:44:38;;;;;;;0.10;0.10;;;9.60;99.90;12.80;163505.00;;;;4970188;28;20626;-75
2023/01/15 04:47:07;;;;;;;0.10;0.10;;;9.60;99.90;12.80;163505.00;;;;4969803;28;20225;-75
2023/01/15 04:49:35;;;;;;;0.10;0.10;;;9.60;99.90;12.80;163505.00;;;;4972254;28;20200;-75
2023/01/15 04:52:04;;;;;;;0.05;0.05;;;9.60;99.90;12.80;163505.00;;;;4973603;28;20275;-76
2023/01/15 04:54:32;;;;;;;0.10;0.10;;;9.60;99.90;12.80;163505.00;;;;4973181;28;20601;-76
2023/01/15 04:57:00;;;;;;;0.10;0.10;;;9.60;99.90;12.80;163505.00;;;;4973646;28;20228;-76
2023/01/15 04:59:28;;;;;;;0.10;0.10;;;9.60;99.90;12.80;163505.00;;;;4973948;28;20197;-76
2023/01/15 05:01:56;;;;;;;0.10;0.10;;;9.60;99.90;12.80;163505.00;;;;4970766;28;20643;-76
2023/01/15 05:04:35;;;;;;;0.10;0.10;;;9.60;99.90;12.80;163505.00;;;;4968816;28;20578;-76
2023/01/15 05:07:04;;;;;;;0.10;0.10;;;9.50;99.90;12.80;163505.00;;;;4973383;28;20252;-76
2023/01/15 05:09:33;;;;;;;0.10;0.10;;;9.50;99.90;12.80;163505.00;;;;4973080;28;20201;-75
2023/01/15 05:12:01;;;;;;;0.10;0.10;;;9.50;99.90;12.80;163505.00;;;;4972532;28;20247;-74
2023/01/15 05:14:29;;;;;;;0.10;0.10;;;9.50;99.90;12.80;163505.00;;;;4976736;28;20201;-74
2023/01/15 05:16:57;;;;;;;0.10;0.10;;;9.50;99.90;12.80;163505.00;;;;4976652;28;20217;-74
2023/01/15 05:19:25;;;;;;;0.10;0.10;;;9.50;99.90;12.80;163505.00;;;;4974619;28;20256;-75
2023/01/15 05:21:55;;;;;;;0.10;0.10;;;9.50;99.90;12.80;163505.00;;;;4979317;28;20224;-75
2023/01/15 05:24:23;;;;;;;0.10;0.10;;;9.50;99.90;12.80;163505.00;;;;4972881;28;20244;-75
2023/01/15 05:26:51;;;;;;;0.10;0.10;;;9.50;99.90;12.80;163505.00;;;;4973248;28;20611;-75
2023/01/15 05:29:19;;;;;;;0.10;0.10;;;9.50;99.90;12.80;163505.00;;;;4972032;28;20201;-75
2023/01/15 05:31:46;;;;;;;0.10;0.10;;;9.50;99.90;12.80;163505.00;;;;4970658;28;20275;-75
2023/01/15 05:34:15;;;;;;;0.10;0.10;;;9.60;99.90;12.80;163505.00;;;;4973412;28;20197;-75
2023/01/15 05:36:43;;;;;;;0.10;0.10;;;9.60;99.90;12.80;163505.00;;;;4973199;28;20201;-75
2023/01/15 05:39:12;;;;;;;0.10;0.10;;;9.60;99.90;12.80;163505.00;;;;4972955;28;20698;-75
2023/01/15 05:41:49;;;;;;;0.10;0.10;;;9.60;99.90;12.80;163505.00;;;;4972812;28;20220;-74
2023/01/15 05:44:21;;;;;;;0.10;0.10;;;9.60;99.90;12.80;163505.00;;;;4972730;28;20216;-75
2023/01/15 05:46:52;;;;;;;0.10;0.10;;;9.60;99.90;12.80;163505.00;;;;4972352;28;20228;-76
2023/01/15 05:49:24;;;;;;;0.10;0.10;;;9.60;99.90;12.80;163505.00;;;;4971620;28;20626;-76
2023/01/15 05:51:54;;;;;;;0.10;0.10;;;9.60;99.90;12.80;163505.00;;;;4957452;28;20237;-76
2023/01/15 05:54:28;;;;;;;0.10;0.10;;;9.60;99.90;12.80;163505.00;;;;4972257;28;20197;-77
2023/01/15 05:56:57;;;;;;;0.00;0.00;;;9.60;99.90;12.80;163505.00;;;;4976597;28;20314;-75
2023/01/15 05:59:28;;;;;;;0.10;0.10;;;9.50;99.90;12.80;163505.00;;;;4972529;28;20199;-77
2023/01/15 06:01:57;;;;;;;0.10;0.10;;;9.50;99.90;12.80;163505.00;;;;4977320;28;20276;-76
2023/01/15 06:04:25;;;;;;;0.10;0.10;;;9.50;99.90;12.80;163505.00;;;;4953927;29;20200;-76
2023/01/15 06:06:55;;;;;;;0.00;0.00;;;9.50;99.90;12.80;163505.00;;;;4964913;28;20229;-75
2023/01/15 06:09:26;;;;;;;0.10;0.10;;;9.40;99.90;12.80;163505.00;;;;4971224;28;20197;-76
2023/01/15 06:11:55;;;;;;;0.10;0.10;;;9.40;99.90;12.80;163505.00;;;;4962037;28;20279;-76
2023/01/15 06:14:23;;;;;;;0.10;0.10;;;9.40;99.90;12.80;163505.00;;;;4953646;29;20241;-76
2023/01/15 06:16:51;;;;;;;0.10;0.10;;;9.50;99.90;12.80;163505.00;;;;4964935;28;20690;-75
2023/01/15 06:19:19;;;;;;;0.10;0.10;;;9.60;99.90;12.80;163505.00;;;;4967992;28;20197;-77
2023/01/15 06:21:47;;;;;;;0.00;0.00;;;9.50;99.90;12.80;163505.00;;;;4971196;28;20225;-77
2023/01/15 06:24:16;;;;;;;0.10;0.10;;;9.50;99.90;12.80;163505.00;;;;4974464;28;20265;-76
2023/01/15 06:26:46;;;;;;;0.10;0.10;;;9.30;99.90;12.80;163505.00;;;;4980761;28;20208;-77
2023/01/15 06:29:17;;;;;;;0.10;0.10;;;9.20;99.90;12.80;163505.00;;;;4972722;28;20197;-77
2023/01/15 06:31:46;;;;;;;0.10;0.10;;;9.10;99.90;12.80;163505.00;;;;4963501;28;20224;-77
2023/01/15 06:34:14;;;;;;;0.10;0.10;;;9.00;99.90;12.80;163505.00;;;;4971684;28;20201;-76
2023/01/15 06:36:42;;;;;;;0.10;0.10;;;8.90;99.90;12.80;163505.00;;;;4972242;28;20252;-76
2023/01/15 06:39:10;;;;;;;0.10;0.10;;;8.60;99.90;12.80;163505.00;;;;4964875;28;20197;-76
2023/01/15 06:47:20;;;;;;;0.10;0.10;;;8.50;99.90;12.80;163505.00;;;;4973238;28;20287;-76
2023/01/15 06:49:52;;;;;;;0.10;0.10;;;8.40;99.90;12.80;163505.00;;;;4954809;28;20232;-75
2023/01/15 06:52:20;;;;;;;0.10;0.10;;;8.30;99.90;12.80;163505.00;;;;4971055;28;20221;-77
2023/01/15 06:54:48;;;;;;;0.10;0.10;;;8.30;99.90;12.80;163505.00;;;;4972108;28;20212;-76
2023/01/15 06:57:17;;;;;;;0.10;0.10;;;8.10;99.90;12.80;163505.00;;;;4971911;28;20573;-75
2023/01/15 06:59:47;;;;;;;0.10;0.10;;;8.10;99.90;12.80;163505.00;;;;4972239;28;20185;-76
2023/01/15 07:02:16;;;;;;;0.10;0.10;;;8.10;99.90;12.80;163505.00;;;;4969115;28;20224;-76
2023/01/15 07:04:45;;;;;;;0.10;0.10;;;8.00;99.90;12.80;163505.00;;;;4970936;28;20648;-76
2023/01/15 07:07:13;;;;;;;0.10;0.10;;;8.00;99.90;12.80;163505.00;;;;4971687;28;20224;-76
2023/01/15 07:09:41;;;;;;;0.10;0.10;;;8.00;99.90;12.80;163505.00;;;;4972247;28;20218;-76
2023/01/15 07:12:09;;;;;;;0.10;0.10;;;8.00;99.90;12.80;163505.00;;;;4970400;28;20220;-77
2023/01/15 07:14:37;;;;;;;0.10;0.10;;;7.90;99.90;12.80;163505.00;;;;4963611;28;20659;-76
2023/01/15 07:17:07;;;;;;;0.00;0.00;;;7.90;99.90;12.80;163505.00;;;;4973998;28;20205;-76
2023/01/15 07:19:36;;;;;;;0.10;0.10;;;7.90;99.90;12.80;163505.00;;;;4966640;28;20193;-76
2023/01/15 07:22:09;;;;;;;0.10;0.10;;;7.80;99.90;12.80;163505.00;;;;4969855;28;20584;-75
2023/01/15 07:24:37;;;;;;;0.10;0.10;;;7.70;99.90;12.80;163505.00;;;;4970951;28;20208;-75
2023/01/15 07:27:06;;;;;;;0.10;0.10;;;7.70;99.90;12.80;163505.00;;;;4971639;28;20267;-76
2023/01/15 07:29:34;;;;;;;0.10;0.10;;;7.60;99.90;12.80;163505.00;;;;4971838;28;20212;-77
2023/01/15 07:32:02;;;;;;;0.10;0.10;;;7.60;99.90;12.80;163505.00;;;;4973772;28;20236;-77
2023/01/15 07:34:31;;;;;;;0.10;0.10;;;7.60;99.90;12.80;163505.00;;;;4975510;28;20204;-75
2023/01/15 07:36:59;;;;;;;0.10;0.10;;;7.60;99.90;12.80;163505.00;;;;4971895;28;20225;-75
2023/01/15 07:39:30;;;;;;;0.10;0.10;;;7.60;99.90;12.80;163505.00;;;;4974247;28;20233;-75
2023/01/15 07:50:20;;;;;;;0.10;0.10;;;7.50;99.90;12.80;163505.00;;;;4973989;28;20201;-77
2023/01/15 07:52:49;;;;;;;0.10;0.10;;;7.50;99.90;12.80;163505.00;;;;4974171;28;20259;-76
2023/01/15 07:55:21;;;;;;;0.10;0.10;;;7.50;99.90;12.80;163505.00;;;;4975690;28;20204;-76
2023/01/15 07:57:49;;;;;;;0.10;0.10;;;7.40;99.90;12.80;163505.00;;;;4974059;28;20193;-74
2023/01/15 08:00:22;;;;;;;0.10;0.10;;;7.40;99.90;12.80;163505.00;;;;4969596;28;20205;-74
2023/01/15 08:02:51;;;;;;;0.10;0.10;;;7.40;99.90;12.80;163505.00;;;;4964685;28;20728;-74
2023/01/15 08:05:20;;;;;;;0.10;0.10;;;7.40;99.90;12.80;163505.00;;;;4974340;28;20206;-74
2023/01/15 08:07:49;;;;;;;0.10;0.10;;;7.30;99.90;12.80;163505.00;;;;4973165;28;20220;-74
2023/01/15 08:10:18;;;;;;;0.10;0.10;;;7.30;99.90;12.80;163505.00;;;;4970711;28;20571;-74
2023/01/15 08:15:41;;;;;;;0.10;0.10;;;7.20;99.90;12.80;163505.00;;;;4973447;28;20201;-74
2023/01/15 08:18:10;;;;;;;0.10;0.10;;;7.10;99.90;12.80;163505.00;;;;4955001;28;20208;-74
2023/01/15 08:20:39;;;;;;;0.00;0.00;;;7.10;99.90;12.80;163505.00;;;;4967426;28;20207;-74
2023/01/15 08:23:09;;;;;;;0.10;0.10;;;7.20;99.90;12.80;163505.00;;;;4973632;28;20219;-77
2023/01/15 08:25:37;;;;;;;0.10;0.10;;;7.10;99.90;12.80;163505.00;;;;4969947;28;20285;-77
2023/01/15 08:28:05;;;;;;;0.10;0.10;;;7.10;99.90;12.80;163505.00;;;;4972974;28;20221;-74
2023/01/15 08:30:33;;;;;;;0.10;0.10;;;7.10;99.90;12.80;163505.00;;;;4969829;28;20190;-75
2023/01/15 08:33:02;;;;;;;0.10;0.10;;;7.10;99.90;12.80;163505.00;;;;4972816;28;20225;-76
2023/01/15 08:35:30;;;;;;;0.10;0.10;;;7.20;99.90;12.80;163505.00;;;;4971607;28;20216;-76
2023/01/15 08:38:05;;;;;;;0.08;0.08;;;7.20;99.90;12.80;163505.00;;;;4973583;28;20659;-76
2023/01/15 08:40:35;;;;;;;0.10;0.10;;;7.30;99.90;12.80;163505.00;;;;4967247;28;20541;-76
2023/01/15 08:43:03;;;;;;;0.10;0.10;;;7.40;99.90;12.80;163505.00;;;;4964718;28;20217;-76
2023/01/15 08:45:31;;;;;;;0.10;0.10;;;7.30;99.90;12.80;163505.00;;;;4970522;28;20663;-76
2023/01/15 08:47:59;;;;;;;0.00;0.00;;;7.10;99.90;12.80;163505.00;;;;4970534;28;20251;-76
2023/01/15 08:50:27;;;;;;;0.00;0.00;;;6.90;99.90;12.80;163505.00;;;;4969015;28;20416;-76
2023/01/15 08:52:55;;;;;;;0.10;0.10;;;6.80;99.90;12.80;163505.00;;;;4970225;28;20233;-76
2023/01/15 08:55:24;;;;;;;0.10;0.10;;;6.80;99.90;12.80;163505.00;;;;4969946;28;20479;-76
2023/01/15 08:57:52;;;;;;;0.10;0.10;;;6.70;99.90;12.80;163505.00;;;;4973382;28;20202;-76
2023/01/15 09:00:23;;;;;;;0.05;0.05;;;6.50;99.90;12.80;163505.00;;;;4969755;28;20197;-76
2023/01/15 09:02:52;;;;;;;0.10;0.10;;;6.50;99.90;12.80;163505.00;;;;4972946;28;20334;-76
2023/01/15 09:05:20;;;;;;;0.10;0.10;;;6.50;99.90;12.80;163505.00;;;;4974795;28;20244;-76
2023/01/15 09:07:48;;;;;;;0.10;0.10;;;6.50;99.90;12.80;163505.00;;;;4971704;28;20211;-76
2023/01/15 09:10:17;;;;;;;0.00;0.00;;;6.50;99.90;12.80;163505.00;;;;4975849;28;20209;-76
2023/01/15 09:12:47;;;;;;;0.08;0.08;;;6.40;99.90;12.80;163505.00;;;;4973902;28;20228;-76
2023/01/15 09:15:15;;;;;;;0.10;0.10;;;6.30;99.90;12.80;163505.00;;;;4974818;28;20704;-76
2023/01/15 09:17:43;;;;;;;0.10;0.10;;;6.20;99.90;12.80;163505.00;;;;4973090;28;20196;-75
2023/01/15 09:20:14;;;;;;;0.00;0.00;;;6.20;99.90;12.80;163505.00;;;;4966567;28;20229;-76
2023/01/15 09:22:42;;;;;;;0.10;0.10;;;6.20;99.90;12.80;163505.00;;;;4978176;28;20221;-76
2023/01/15 09:25:10;;;;;;;0.10;0.10;;;6.20;99.90;12.80;163505.00;;;;4977554;28;20235;-76
2023/01/15 09:27:38;;;;;;;0.10;0.10;;;6.20;99.90;12.80;163505.00;;;;4981836;28;20274;-75
2023/01/15 09:30:14;;;;;;;0.10;0.10;;;6.20;99.90;12.80;163505.00;;;;4967588;28;20303;-75
2023/01/15 09:32:42;;;;;;;0.10;0.10;;;6.20;99.90;12.80;163505.00;;;;4975120;28;20621;-75
2023/01/15 09:35:10;;;;;;;0.10;0.10;;;6.20;99.90;12.80;163505.00;;;;4972381;28;20201;-76
2023/01/15 09:37:38;;;;;;;0.10;0.10;;;6.20;99.90;12.80;163505.00;;;;4967084;28;20197;-75
2023/01/15 09:40:18;;;;;;;0.00;0.00;;;6.20;99.90;12.80;163505.00;;;;4973374;28;20208;-75
2023/01/15 09:42:55;;;;;;;0.10;0.10;;;6.20;99.90;12.80;163505.00;;;;4972868;28;20370;-75
2023/01/15 09:45:31;;;;;;;0.10;0.10;;;6.20;99.90;12.80;163505.00;;;;4970895;28;20204;-75
2023/01/15 09:48:22;;;;;;;0.10;0.10;;;6.20;99.90;12.80;163505.00;;;;4972541;28;20818;-75
2023/01/15 09:51:10;;;;;;;0.10;0.10;;;6.20;99.90;12.80;163505.00;;;;4957116;28;20559;-76
2023/01/15 09:53:58;;;;;;;0.10;0.10;;;6.20;99.90;12.80;163505.00;;;;4972009;28;20209;-75
2023/01/15 09:56:31;;;;;;;0.10;0.10;;;6.10;99.90;12.80;163505.00;;;;4967137;28;20686;-75
2023/01/15 09:59:09;;;;;;;0.10;0.10;;;6.00;99.90;12.80;163505.00;;;;4971937;28;20201;-75
2023/01/15 10:01:40;;;;;;;0.10;0.10;;;5.90;99.90;12.80;163505.00;;;;4965447;28;20218;-75
2023/01/15 10:04:17;;;;;;;0.10;0.10;;;5.90;99.90;12.80;163505.00;;;;4985932;28;20204;-75
2023/01/15 10:06:57;;;;;;;0.10;0.10;;;5.80;99.90;12.80;163505.00;;;;4972480;28;20209;-75
2023/01/15 10:09:36;;;;;;;0.00;0.00;;;5.80;99.90;12.80;163505.00;;;;4969521;28;20232;-75
2023/01/15 10:15:14;;;;;;;0.10;0.10;;;5.80;99.90;12.80;163505.00;;;;4965592;28;20265;-75
2023/01/15 10:17:47;;;;;;;0.10;0.10;;;5.80;99.90;12.80;163505.00;;;;4970358;28;20538;-75
2023/01/15 10:20:28;;;;;;;0.10;0.10;;;5.90;99.90;12.80;163505.00;;;;4969523;28;20275;-75
2023/01/15 10:23:25;;;;;;;0.10;0.10;;;5.80;99.90;12.80;163505.00;;;;4970571;28;20704;-75
2023/01/15 10:26:03;;;;;;;0.10;0.10;;;5.70;99.90;12.80;163505.00;;;;4971560;28;20201;-75
2023/01/15 10:28:47;;;;;;;0.00;0.00;;;5.70;99.90;12.80;163505.00;;;;4965893;28;20551;-76
2023/01/15 10:31:21;;;;;;;0.10;0.10;;;5.60;99.90;12.80;163505.00;;;;4968880;28;20201;-75
2023/01/15 10:34:10;;;;;;;0.10;0.10;;;5.60;99.90;12.80;163505.00;;;;4959178;28;20232;-75
2023/01/15 10:36:44;;;;;;;0.05;0.05;;;5.70;99.90;12.80;163505.00;;;;4954227;28;20200;-76
2023/01/15 10:39:23;;;;;;;0.10;0.10;;;5.70;99.90;12.80;163505.00;;;;4970510;28;20256;-76
2023/01/15 10:42:11;;;;;;;0.05;0.05;;;5.70;99.90;12.80;163505.00;;;;4974783;28;20221;-76
2023/01/15 10:44:54;;;;;;;0.00;0.00;;;5.60;99.90;12.80;163505.00;;;;4973144;28;20205;-76
2023/01/15 10:47:35;;;;;;;0.10;0.10;;;5.60;99.90;12.80;163505.00;;;;4969297;28;20192;-76
2023/01/15 10:50:17;;;;;;;0.10;0.10;;;5.50;99.90;12.80;163505.00;;;;4972964;28;20283;-76
2023/01/15 10:52:50;;;;;;;0.05;0.05;;;5.60;99.90;12.80;163505.00;;;;4971625;28;20275;-76
2023/01/15 10:55:27;;;;;;;0.10;0.10;;;5.60;99.90;12.80;163505.00;;;;4972238;28;20197;-75
2023/01/15 10:58:04;;;;;;;0.10;0.10;;;5.60;99.90;12.80;163505.00;;;;4970291;28;20196;-76
2023/01/15 11:00:39;;;;;;;0.10;0.10;;;5.60;99.90;12.80;163505.00;;;;4966467;28;20205;-75
2023/01/15 11:03:16;;;;;;;0.10;0.10;;;5.60;99.90;12.80;163505.00;;;;4972637;28;20713;-75
2023/01/15 11:05:46;;;;;;;0.10;0.10;;;5.70;99.90;12.80;163505.00;;;;4972070;28;20200;-76
2023/01/15 11:08:26;;;;;;;0.10;0.10;;;5.60;99.90;12.80;163505.00;;;;4970010;28;20689;-75
2023/01/15 11:19:35;;;;;;;0.10;0.10;;;5.70;99.90;12.80;163505.00;;;;4964761;28;20232;-75
2023/01/15 11:19:44;;;;;;;0.10;0.10;;;5.70;99.90;12.80;163505.00;;;;4972138;28;20232;-75
2023/01/15 11:22:17;;;;;;;0.00;0.00;;;5.60;99.90;12.80;163505.00;;;;4975067;28;20217;-76
2023/01/15 11:24:50;;;;;;;0.00;0.00;;;5.60;99.90;12.80;163505.00;;;;4975486;28;20201;-76
2023/01/15 11:27:22;;;;;;;0.10;0.10;;;5.60;99.90;12.80;163505.00;;;;4972865;28;20204;-75
2023/01/15 11:29:56;;;;;;;0.10;0.10;;;5.60;99.90;12.80;163505.00;;;;4973206;28;20570;-75
2023/01/15 11:32:29;;;;;;;0.10;0.10;;;5.60;99.90;12.80;163505.00;;;;4974748;28;20220;-75
2023/01/15 11:35:01;;;;;;;0.10;0.10;;;5.60;99.90;12.80;163505.00;;;;4975548;28;20723;-75
2023/01/15 11:37:31;;;;;;;0.10;0.10;;;5.60;99.90;12.80;163505.00;;;;4971655;28;20687;-75
2023/01/15 11:40:06;;;;;;;0.10;0.10;;;5.70;99.90;12.80;163505.00;;;;4974304;28;20682;-75
2023/01/15 11:51:10;;;;;;;0.05;0.05;;;5.70;99.90;12.80;163505.00;;;;4937592;28;20280;-76
2023/01/15 11:53:45;;;;;;;0.10;0.10;;;5.80;99.90;12.80;163505.00;;;;4974853;28;20757;-76
2023/01/15 11:56:17;;;;;;;0.10;0.10;;;5.80;99.90;12.80;163505.00;;;;4974418;28;20204;-76
2023/01/15 11:58:48;;;;;;;0.00;0.00;;;5.80;99.90;12.80;163505.00;;;;4973746;28;20196;-75